sensor_id;sensor_type;location;lat;lon;timestamp;temperature;humidity
27795;DHT22;15176;50.844;4.412;2023-02-08T00:01:38;8.50;92.80
27795;DHT22;15176;50.844;4.412;2023-02-08T00:04:04;8.50;92.70
27795;DHT22;15176;50.844;4.412;2023-02-08T00:06:30;8.60;92.40
27795;DHT22;15176;50.844;4.412;2023-02-08T00:08:56;8.70;92.10
27795;DHT22;15176;50.844;4.412;2023-02-08T00:11:21;8.50;92.20
27795;DHT22;15176;50.844;4.412;2023-02-08T00:13:47;8.40;92.80
27795;DHT22;15176;50.844;4.412;2023-02-08T00:16:14;8.30;93.00
27795;DHT22;15176;50.844;4.412;2023-02-08T00:18:40;8.30;93.10
27795;DHT22;15176;50.844;4.412;2023-02-08T00:21:11;8.20;93.30
27795;DHT22;15176;50.844;4.412;2023-02-08T00:23:37;8.30;93.10
27795;DHT22;15176;50.844;4.412;2023-02-08T00:26:03;8.30;93.10
27795;DHT22;15176;50.844;4.412;2023-02-08T00:28:29;8.20;93.30
27795;DHT22;15176;50.844;4.412;2023-02-08T00:30:55;8.30;93.50
27795;DHT22;15176;50.844;4.412;2023-02-08T00:33:20;8.30;93.50
27795;DHT22;15176;50.844;4.412;2023-02-08T00:35:46;8.20;93.70
27795;DHT22;15176;50.844;4.412;2023-02-08T00:38:12;8.20;93.80
27795;DHT22;15176;50.844;4.412;2023-02-08T00:40:38;8.20;94.20
27795;DHT22;15176;50.844;4.412;2023-02-08T00:43:05;8.40;94.20
27795;DHT22;15176;50.844;4.412;2023-02-08T00:45:32;8.50;94.00
27795;DHT22;15176;50.844;4.412;2023-02-08T00:47:58;8.70;94.20
27795;DHT22;15176;50.844;4.412;2023-02-08T00:50:24;8.60;93.30
27795;DHT22;15176;50.844;4.412;2023-02-08T00:52:50;8.50;93.10
27795;DHT22;15176;50.844;4.412;2023-02-08T00:55:15;8.40;92.90
27795;DHT22;15176;50.844;4.412;2023-02-08T00:57:41;8.30;93.10
27795;DHT22;15176;50.844;4.412;2023-02-08T01:00:07;8.20;93.40
27795;DHT22;15176;50.844;4.412;2023-02-08T01:02:33;8.20;93.40
27795;DHT22;15176;50.844;4.412;2023-02-08T01:04:59;8.30;93.60
27795;DHT22;15176;50.844;4.412;2023-02-08T01:07:24;8.40;93.40
27795;DHT22;15176;50.844;4.412;2023-02-08T01:09:51;8.30;93.30
27795;DHT22;15176;50.844;4.412;2023-02-08T01:12:17;8.10;93.70
27795;DHT22;15176;50.844;4.412;2023-02-08T01:14:43;7.90;94.20
27795;DHT22;15176;50.844;4.412;2023-02-08T01:17:08;7.90;94.60
27795;DHT22;15176;50.844;4.412;2023-02-08T01:19:34;7.50;95.50
27795;DHT22;15176;50.844;4.412;2023-02-08T01:22:00;7.00;97.10
27795;DHT22;15176;50.844;4.412;2023-02-08T01:24:25;7.00;98.30
27795;DHT22;15176;50.844;4.412;2023-02-08T01:26:51;7.10;98.30
27795;DHT22;15176;50.844;4.412;2023-02-08T01:29:17;7.10;98.20
27795;DHT22;15176;50.844;4.412;2023-02-08T01:31:44;7.30;98.80
27795;DHT22;15176;50.844;4.412;2023-02-08T01:34:10;7.50;98.90
27795;DHT22;15176;50.844;4.412;2023-02-08T01:36:37;7.60;99.60
27795;DHT22;15176;50.844;4.412;2023-02-08T01:39:04;7.60;98.50
27795;DHT22;15176;50.844;4.412;2023-02-08T01:41:33;7.60;98.20
27795;DHT22;15176;50.844;4.412;2023-02-08T01:46:43;7.70;98.50
27795;DHT22;15176;50.844;4.412;2023-02-08T01:51:45;7.90;99.20
27795;DHT22;15176;50.844;4.412;2023-02-08T01:54:12;7.70;98.80
27795;DHT22;15176;50.844;4.412;2023-02-08T01:56:42;7.80;98.80
27795;DHT22;15176;50.844;4.412;2023-02-08T01:59:17;7.70;98.30
27795;DHT22;15176;50.844;4.412;2023-02-08T02:01:45;7.80;98.40
27795;DHT22;15176;50.844;4.412;2023-02-08T02:04:13;7.90;98.40
27795;DHT22;15176;50.844;4.412;2023-02-08T02:06:43;7.80;97.80
27795;DHT22;15176;50.844;4.412;2023-02-08T02:09:24;7.70;97.80
27795;DHT22;15176;50.844;4.412;2023-02-08T02:11:52;7.80;98.00
27795;DHT22;15176;50.844;4.412;2023-02-08T02:14:19;7.70;97.90
27795;DHT22;15176;50.844;4.412;2023-02-08T02:16:44;7.80;98.40
27795;DHT22;15176;50.844;4.412;2023-02-08T02:19:19;7.70;98.30
27795;DHT22;15176;50.844;4.412;2023-02-08T02:22:00;7.60;98.30
27795;DHT22;15176;50.844;4.412;2023-02-08T02:30:18;7.50;99.20
27795;DHT22;15176;50.844;4.412;2023-02-08T02:43:26;6.90;99.40
27795;DHT22;15176;50.844;4.412;2023-02-08T02:46:39;6.70;99.90
27795;DHT22;15176;50.844;4.412;2023-02-08T02:49:40;6.90;99.90
27795;DHT22;15176;50.844;4.412;2023-02-08T02:52:30;6.90;99.90
27795;DHT22;15176;50.844;4.412;2023-02-08T02:55:04;7.00;99.90
27795;DHT22;15176;50.844;4.412;2023-02-08T02:57:32;7.10;99.90
27795;DHT22;15176;50.844;4.412;2023-02-08T02:59:59;7.10;99.90
27795;DHT22;15176;50.844;4.412;2023-02-08T03:02:27;7.10;99.90
27795;DHT22;15176;50.844;4.412;2023-02-08T03:04:55;7.30;99.90
27795;DHT22;15176;50.844;4.412;2023-02-08T03:07:42;7.30;99.90
27795;DHT22;15176;50.844;4.412;2023-02-08T03:10:44;7.40;99.90
27795;DHT22;15176;50.844;4.412;2023-02-08T03:20:51;7.10;99.90
27795;DHT22;15176;50.844;4.412;2023-02-08T03:23:27;7.10;99.90
27795;DHT22;15176;50.844;4.412;2023-02-08T03:26:33;7.10;99.90
27795;DHT22;15176;50.844;4.412;2023-02-08T03:37:27;6.90;99.90
27795;DHT22;15176;50.844;4.412;2023-02-08T03:40:02;7.00;99.90
27795;DHT22;15176;50.844;4.412;2023-02-08T03:42:29;7.10;99.90
27795;DHT22;15176;50.844;4.412;2023-02-08T03:45:04;7.30;99.90
27795;DHT22;15176;50.844;4.412;2023-02-08T03:47:34;7.20;99.90
27795;DHT22;15176;50.844;4.412;2023-02-08T03:50:05;6.90;99.90
27795;DHT22;15176;50.844;4.412;2023-02-08T03:52:33;6.60;99.90
27795;DHT22;15176;50.844;4.412;2023-02-08T03:55:07;5.90;99.90
27795;DHT22;15176;50.844;4.412;2023-02-08T04:00:12;5.70;99.90
27795;DHT22;15176;50.844;4.412;2023-02-08T04:02:49;5.90;99.90
27795;DHT22;15176;50.844;4.412;2023-02-08T04:05:17;6.00;99.90
27795;DHT22;15176;50.844;4.412;2023-02-08T04:07:43;6.20;99.90
27795;DHT22;15176;50.844;4.412;2023-02-08T04:10:09;6.40;99.90
27795;DHT22;15176;50.844;4.412;2023-02-08T04:12:34;6.40;99.90
27795;DHT22;15176;50.844;4.412;2023-02-08T04:15:00;6.50;99.90
27795;DHT22;15176;50.844;4.412;2023-02-08T04:17:26;6.50;99.90
27795;DHT22;15176;50.844;4.412;2023-02-08T04:19:52;6.30;99.90
27795;DHT22;15176;50.844;4.412;2023-02-08T04:22:17;6.50;99.90
27795;DHT22;15176;50.844;4.412;2023-02-08T04:24:43;6.80;99.90
27795;DHT22;15176;50.844;4.412;2023-02-08T04:27:09;7.20;99.90
27795;DHT22;15176;50.844;4.412;2023-02-08T04:29:34;7.50;99.90
27795;DHT22;15176;50.844;4.412;2023-02-08T04:32:00;7.50;99.90
27795;DHT22;15176;50.844;4.412;2023-02-08T04:34:26;7.40;99.90
27795;DHT22;15176;50.844;4.412;2023-02-08T04:36:52;7.40;99.90
27795;DHT22;15176;50.844;4.412;2023-02-08T04:39:18;7.20;99.90
27795;DHT22;15176;50.844;4.412;2023-02-08T04:41:43;7.10;99.90
27795;DHT22;15176;50.844;4.412;2023-02-08T04:44:09;7.10;99.90
27795;DHT22;15176;50.844;4.412;2023-02-08T04:46:35;7.00;99.90
27795;DHT22;15176;50.844;4.412;2023-02-08T04:49:00;6.90;99.90
27795;DHT22;15176;50.844;4.412;2023-02-08T04:51:26;7.00;99.90
27795;DHT22;15176;50.844;4.412;2023-02-08T04:53:52;7.00;99.90
27795;DHT22;15176;50.844;4.412;2023-02-08T04:56:17;6.90;99.90
27795;DHT22;15176;50.844;4.412;2023-02-08T04:58:43;7.00;99.90
27795;DHT22;15176;50.844;4.412;2023-02-08T05:01:09;7.10;99.90
27795;DHT22;15176;50.844;4.412;2023-02-08T05:03:35;7.20;99.90
27795;DHT22;15176;50.844;4.412;2023-02-08T05:06:01;7.10;99.90
27795;DHT22;15176;50.844;4.412;2023-02-08T05:08:27;7.10;99.90
27795;DHT22;15176;50.844;4.412;2023-02-08T05:10:53;7.10;99.90
27795;DHT22;15176;50.844;4.412;2023-02-08T05:13:19;7.30;99.90
27795;DHT22;15176;50.844;4.412;2023-02-08T05:15:45;7.30;99.90
27795;DHT22;15176;50.844;4.412;2023-02-08T05:18:11;7.40;99.90
27795;DHT22;15176;50.844;4.412;2023-02-08T05:20:36;7.40;99.90
27795;DHT22;15176;50.844;4.412;2023-02-08T05:23:02;7.40;99.90
27795;DHT22;15176;50.844;4.412;2023-02-08T05:25:28;7.50;99.90
27795;DHT22;15176;50.844;4.412;2023-02-08T05:27:53;7.50;98.60
27795;DHT22;15176;50.844;4.412;2023-02-08T05:30:19;7.60;99.30
27795;DHT22;15176;50.844;4.412;2023-02-08T05:32:45;7.90;99.90
27795;DHT22;15176;50.844;4.412;2023-02-08T05:35:10;8.00;99.30
27795;DHT22;15176;50.844;4.412;2023-02-08T05:37:36;8.00;98.40
27795;DHT22;15176;50.844;4.412;2023-02-08T05:40:02;8.00;97.80
27795;DHT22;15176;50.844;4.412;2023-02-08T05:42:28;8.20;98.40
27795;DHT22;15176;50.844;4.412;2023-02-08T05:44:54;8.30;98.10
27795;DHT22;15176;50.844;4.412;2023-02-08T05:47:19;8.40;97.40
27795;DHT22;15176;50.844;4.412;2023-02-08T05:49:45;8.40;96.00
27795;DHT22;15176;50.844;4.412;2023-02-08T05:52:10;8.30;95.60
27795;DHT22;15176;50.844;4.412;2023-02-08T05:54:36;8.20;95.10
27795;DHT22;15176;50.844;4.412;2023-02-08T05:57:02;8.00;95.20
27795;DHT22;15176;50.844;4.412;2023-02-08T05:59:28;7.90;95.90
27795;DHT22;15176;50.844;4.412;2023-02-08T06:01:54;8.10;94.90
27795;DHT22;15176;50.844;4.412;2023-02-08T06:04:20;7.90;94.90
27795;DHT22;15176;50.844;4.412;2023-02-08T06:06:45;7.60;95.00
27795;DHT22;15176;50.844;4.412;2023-02-08T06:09:11;7.40;95.50
27795;DHT22;15176;50.844;4.412;2023-02-08T06:11:37;7.50;95.90
27795;DHT22;15176;50.844;4.412;2023-02-08T06:14:03;7.40;96.10
27795;DHT22;15176;50.844;4.412;2023-02-08T06:16:28;7.20;96.10
27795;DHT22;15176;50.844;4.412;2023-02-08T06:18:54;7.10;97.00
27795;DHT22;15176;50.844;4.412;2023-02-08T06:21:21;7.10;96.80
27795;DHT22;15176;50.844;4.412;2023-02-08T06:23:47;7.20;96.90
27795;DHT22;15176;50.844;4.412;2023-02-08T06:26:13;7.20;96.80
27795;DHT22;15176;50.844;4.412;2023-02-08T06:28:38;7.30;96.80
27795;DHT22;15176;50.844;4.412;2023-02-08T06:31:04;7.20;96.80
27795;DHT22;15176;50.844;4.412;2023-02-08T06:33:30;7.10;97.20
27795;DHT22;15176;50.844;4.412;2023-02-08T06:35:56;7.10;97.50
27795;DHT22;15176;50.844;4.412;2023-02-08T06:38:24;6.70;98.50
27795;DHT22;15176;50.844;4.412;2023-02-08T06:40:49;6.60;99.20
27795;DHT22;15176;50.844;4.412;2023-02-08T06:43:15;6.60;99.20
27795;DHT22;15176;50.844;4.412;2023-02-08T06:45:44;6.80;99.60
27795;DHT22;15176;50.844;4.412;2023-02-08T06:48:10;6.90;99.20
27795;DHT22;15176;50.844;4.412;2023-02-08T06:50:35;7.00;99.20
27795;DHT22;15176;50.844;4.412;2023-02-08T06:53:02;7.20;99.20
27795;DHT22;15176;50.844;4.412;2023-02-08T06:55:30;7.10;99.00
27795;DHT22;15176;50.844;4.412;2023-02-08T06:57:56;6.80;99.20
27795;DHT22;15176;50.844;4.412;2023-02-08T07:00:22;6.60;99.90
27795;DHT22;15176;50.844;4.412;2023-02-08T07:02:48;6.70;99.90
27795;DHT22;15176;50.844;4.412;2023-02-08T07:05:14;6.70;99.90
27795;DHT22;15176;50.844;4.412;2023-02-08T07:07:40;6.80;99.90
27795;DHT22;15176;50.844;4.412;2023-02-08T07:10:06;6.80;99.90
27795;DHT22;15176;50.844;4.412;2023-02-08T07:12:36;6.80;99.90
27795;DHT22;15176;50.844;4.412;2023-02-08T07:15:05;6.80;99.90
27795;DHT22;15176;50.844;4.412;2023-02-08T07:17:30;7.00;99.80
27795;DHT22;15176;50.844;4.412;2023-02-08T07:19:56;7.00;98.90
27795;DHT22;15176;50.844;4.412;2023-02-08T07:22:22;6.90;98.70
27795;DHT22;15176;50.844;4.412;2023-02-08T07:24:48;7.20;99.70
27795;DHT22;15176;50.844;4.412;2023-02-08T07:27:13;7.30;98.50
27795;DHT22;15176;50.844;4.412;2023-02-08T07:29:39;7.30;99.30
27795;DHT22;15176;50.844;4.412;2023-02-08T07:32:06;7.30;97.60
27795;DHT22;15176;50.844;4.412;2023-02-08T07:34:33;7.20;97.10
27795;DHT22;15176;50.844;4.412;2023-02-08T07:36:59;7.10;96.80
27795;DHT22;15176;50.844;4.412;2023-02-08T07:39:26;7.20;96.40
27795;DHT22;15176;50.844;4.412;2023-02-08T07:41:52;7.30;96.10
27795;DHT22;15176;50.844;4.412;2023-02-08T07:44:18;7.30;96.00
27795;DHT22;15176;50.844;4.412;2023-02-08T07:46:43;7.20;94.90
27795;DHT22;15176;50.844;4.412;2023-02-08T07:49:09;7.20;94.90
27795;DHT22;15176;50.844;4.412;2023-02-08T07:51:35;7.10;95.30
27795;DHT22;15176;50.844;4.412;2023-02-08T07:54:02;7.20;95.20
27795;DHT22;15176;50.844;4.412;2023-02-08T07:56:28;7.30;94.30
27795;DHT22;15176;50.844;4.412;2023-02-08T07:58:53;7.50;96.20
27795;DHT22;15176;50.844;4.412;2023-02-08T08:01:19;7.60;94.00
27795;DHT22;15176;50.844;4.412;2023-02-08T08:03:45;7.50;93.50
27795;DHT22;15176;50.844;4.412;2023-02-08T08:06:11;7.50;92.50
27795;DHT22;15176;50.844;4.412;2023-02-08T08:08:36;7.50;92.40
27795;DHT22;15176;50.844;4.412;2023-02-08T08:11:02;7.40;92.50
27795;DHT22;15176;50.844;4.412;2023-02-08T08:13:28;6.90;92.20
27795;DHT22;15176;50.844;4.412;2023-02-08T08:15:53;6.70;93.20
27795;DHT22;15176;50.844;4.412;2023-02-08T08:18:19;6.90;94.30
27795;DHT22;15176;50.844;4.412;2023-02-08T08:20:45;7.10;92.50
27795;DHT22;15176;50.844;4.412;2023-02-08T08:23:11;7.10;92.30
27795;DHT22;15176;50.844;4.412;2023-02-08T08:25:36;7.20;92.10
27795;DHT22;15176;50.844;4.412;2023-02-08T08:28:03;7.00;91.90
27795;DHT22;15176;50.844;4.412;2023-02-08T08:30:29;6.30;92.90
27795;DHT22;15176;50.844;4.412;2023-02-08T08:32:55;6.70;94.10
27795;DHT22;15176;50.844;4.412;2023-02-08T08:35:21;6.70;92.40
27795;DHT22;15176;50.844;4.412;2023-02-08T08:37:55;7.00;91.50
27795;DHT22;15176;50.844;4.412;2023-02-08T08:40:20;7.00;91.00
27795;DHT22;15176;50.844;4.412;2023-02-08T08:42:46;6.80;92.40
27795;DHT22;15176;50.844;4.412;2023-02-08T08:45:12;6.90;91.70
27795;DHT22;15176;50.844;4.412;2023-02-08T08:47:38;6.80;91.90
27795;DHT22;15176;50.844;4.412;2023-02-08T08:50:05;7.00;90.80
27795;DHT22;15176;50.844;4.412;2023-02-08T08:52:31;7.20;90.80
27795;DHT22;15176;50.844;4.412;2023-02-08T08:54:57;6.80;90.90
27795;DHT22;15176;50.844;4.412;2023-02-08T08:57:24;6.80;91.00
27795;DHT22;15176;50.844;4.412;2023-02-08T08:59:49;6.50;91.40
27795;DHT22;15176;50.844;4.412;2023-02-08T09:02:15;6.40;90.60
27795;DHT22;15176;50.844;4.412;2023-02-08T09:04:41;6.60;90.70
27795;DHT22;15176;50.844;4.412;2023-02-08T09:07:08;6.30;91.00
27795;DHT22;15176;50.844;4.412;2023-02-08T09:09:34;6.80;91.00
27795;DHT22;15176;50.844;4.412;2023-02-08T09:12:01;7.90;90.00
27795;DHT22;15176;50.844;4.412;2023-02-08T09:14:27;9.20;89.20
27795;DHT22;15176;50.844;4.412;2023-02-08T09:16:52;10.70;84.70
27795;DHT22;15176;50.844;4.412;2023-02-08T09:19:18;12.00;75.70
27795;DHT22;15176;50.844;4.412;2023-02-08T09:21:44;13.00;68.30
27795;DHT22;15176;50.844;4.412;2023-02-08T09:24:10;13.70;59.70
27795;DHT22;15176;50.844;4.412;2023-02-08T09:26:37;14.60;66.00
27795;DHT22;15176;50.844;4.412;2023-02-08T09:29:05;15.50;55.00
27795;DHT22;15176;50.844;4.412;2023-02-08T09:31:33;16.20;50.50
27795;DHT22;15176;50.844;4.412;2023-02-08T09:34:04;16.70;47.90
27795;DHT22;15176;50.844;4.412;2023-02-08T09:36:39;17.10;46.00
27795;DHT22;15176;50.844;4.412;2023-02-08T09:39:17;17.50;45.70
27795;DHT22;15176;50.844;4.412;2023-02-08T09:44:37;18.30;41.60
27795;DHT22;15176;50.844;4.412;2023-02-08T09:49:50;18.40;40.30
27795;DHT22;15176;50.844;4.412;2023-02-08T09:52:21;17.90;39.70
27795;DHT22;15176;50.844;4.412;2023-02-08T09:54:52;18.60;39.30
27795;DHT22;15176;50.844;4.412;2023-02-08T09:57:23;19.00;38.50
27795;DHT22;15176;50.844;4.412;2023-02-08T10:00:05;19.50;38.70
27795;DHT22;15176;50.844;4.412;2023-02-08T10:02:34;20.00;38.40
27795;DHT22;15176;50.844;4.412;2023-02-08T10:05:13;20.50;37.10
27795;DHT22;15176;50.844;4.412;2023-02-08T10:07:43;20.70;35.10
27795;DHT22;15176;50.844;4.412;2023-02-08T10:10:42;20.70;34.20
27795;DHT22;15176;50.844;4.412;2023-02-08T10:22:17;21.20;32.50
27795;DHT22;15176;50.844;4.412;2023-02-08T10:30:36;20.40;30.90
27795;DHT22;15176;50.844;4.412;2023-02-08T10:33:26;20.90;30.40
27795;DHT22;15176;50.844;4.412;2023-02-08T10:35:56;21.20;30.00
27795;DHT22;15176;50.844;4.412;2023-02-08T10:38:27;20.50;28.80
27795;DHT22;15176;50.844;4.412;2023-02-08T10:41:04;20.80;28.50
27795;DHT22;15176;50.844;4.412;2023-02-08T10:46:23;21.80;28.20
27795;DHT22;15176;50.844;4.412;2023-02-08T10:49:11;22.30;26.50
27795;DHT22;15176;50.844;4.412;2023-02-08T10:51:40;22.40;25.80
27795;DHT22;15176;50.844;4.412;2023-02-08T10:54:09;22.20;25.50
27795;DHT22;15176;50.844;4.412;2023-02-08T10:56:53;22.30;25.30
27795;DHT22;15176;50.844;4.412;2023-02-08T10:59:32;22.20;24.90
27795;DHT22;15176;50.844;4.412;2023-02-08T11:02:23;22.40;24.70
27795;DHT22;15176;50.844;4.412;2023-02-08T11:07:35;22.50;24.80
27795;DHT22;15176;50.844;4.412;2023-02-08T11:10:30;22.00;24.50
27795;DHT22;15176;50.844;4.412;2023-02-08T11:13:04;20.90;24.40
27795;DHT22;15176;50.844;4.412;2023-02-08T11:15:37;21.40;26.90
27795;DHT22;15176;50.844;4.412;2023-02-08T11:18:06;22.00;22.30
27795;DHT22;15176;50.844;4.412;2023-02-08T11:20:38;22.00;23.90
27795;DHT22;15176;50.844;4.412;2023-02-08T11:23:05;21.80;23.80
27795;DHT22;15176;50.844;4.412;2023-02-08T11:25:42;21.20;21.70
27795;DHT22;15176;50.844;4.412;2023-02-08T11:28:30;21.50;22.30
27795;DHT22;15176;50.844;4.412;2023-02-08T11:31:02;22.20;21.90
27795;DHT22;15176;50.844;4.412;2023-02-08T11:33:33;22.30;22.40
27795;DHT22;15176;50.844;4.412;2023-02-08T11:36:10;22.90;22.50
27795;DHT22;15176;50.844;4.412;2023-02-08T11:38:41;22.80;22.50
27795;DHT22;15176;50.844;4.412;2023-02-08T11:41:15;23.00;22.60
27795;DHT22;15176;50.844;4.412;2023-02-08T11:43:41;23.50;23.20
27795;DHT22;15176;50.844;4.412;2023-02-08T11:46:09;21.80;22.70
27795;DHT22;15176;50.844;4.412;2023-02-08T11:48:48;22.50;23.00
27795;DHT22;15176;50.844;4.412;2023-02-08T11:51:28;23.10;23.20
27795;DHT22;15176;50.844;4.412;2023-02-08T11:53:55;23.00;23.40
27795;DHT22;15176;50.844;4.412;2023-02-08T11:56:23;22.80;24.40
27795;DHT22;15176;50.844;4.412;2023-02-08T12:01:39;23.10;24.60
27795;DHT22;15176;50.844;4.412;2023-02-08T12:04:16;23.20;24.50
27795;DHT22;15176;50.844;4.412;2023-02-08T12:07:43;23.30;24.20
27795;DHT22;15176;50.844;4.412;2023-02-08T12:09:57;23.70;23.70
27795;DHT22;15176;50.844;4.412;2023-02-08T12:15:45;23.10;23.60
27795;DHT22;15176;50.844;4.412;2023-02-08T12:18:40;23.50;24.60
27795;DHT22;15176;50.844;4.412;2023-02-08T12:21:26;22.60;23.50
27795;DHT22;15176;50.844;4.412;2023-02-08T12:35:00;23.40;23.40
27795;DHT22;15176;50.844;4.412;2023-02-08T12:49:43;22.00;24.10
27795;DHT22;15176;50.844;4.412;2023-02-08T12:54:57;22.80;23.80
27795;DHT22;15176;50.844;4.412;2023-02-08T12:57:27;23.10;24.20
27795;DHT22;15176;50.844;4.412;2023-02-08T13:00:00;23.20;24.00
27795;DHT22;15176;50.844;4.412;2023-02-08T13:02:34;23.20;23.40
27795;DHT22;15176;50.844;4.412;2023-02-08T13:05:15;23.10;23.50
27795;DHT22;15176;50.844;4.412;2023-02-08T13:07:43;22.80;25.40
27795;DHT22;15176;50.844;4.412;2023-02-08T13:12:55;22.50;24.30
27795;DHT22;15176;50.844;4.412;2023-02-08T13:15:47;22.40;24.80
27795;DHT22;15176;50.844;4.412;2023-02-08T13:18:28;22.10;25.10
27795;DHT22;15176;50.844;4.412;2023-02-08T13:21:10;22.20;25.20
27795;DHT22;15176;50.844;4.412;2023-02-08T13:23:42;22.00;24.50
27795;DHT22;15176;50.844;4.412;2023-02-08T13:26:21;21.70;25.30
27795;DHT22;15176;50.844;4.412;2023-02-08T13:28:55;21.40;25.40
27795;DHT22;15176;50.844;4.412;2023-02-08T13:31:40;20.90;25.40
27795;DHT22;15176;50.844;4.412;2023-02-08T13:34:56;20.90;25.20
27795;DHT22;15176;50.844;4.412;2023-02-08T13:37:04;20.80;25.70
27795;DHT22;15176;50.844;4.412;2023-02-08T13:39:34;21.00;25.50
27795;DHT22;15176;50.844;4.412;2023-02-08T13:42:03;20.30;27.20
27795;DHT22;15176;50.844;4.412;2023-02-08T13:44:34;20.20;26.60
27795;DHT22;15176;50.844;4.412;2023-02-08T13:47:01;20.30;26.20
27795;DHT22;15176;50.844;4.412;2023-02-08T13:49:50;20.10;26.70
27795;DHT22;15176;50.844;4.412;2023-02-08T13:57:55;20.30;27.20
27795;DHT22;15176;50.844;4.412;2023-02-08T14:00:34;19.70;27.60
27795;DHT22;15176;50.844;4.412;2023-02-08T14:03:20;19.40;29.60
27795;DHT22;15176;50.844;4.412;2023-02-08T14:06:01;19.30;28.20
27795;DHT22;15176;50.844;4.412;2023-02-08T14:09:08;19.50;28.00
27795;DHT22;15176;50.844;4.412;2023-02-08T14:11:47;19.30;27.90
27795;DHT22;15176;50.844;4.412;2023-02-08T14:19:36;17.30;30.50
27795;DHT22;15176;50.844;4.412;2023-02-08T14:22:25;17.50;30.50
27795;DHT22;15176;50.844;4.412;2023-02-08T14:25:18;17.80;29.90
27795;DHT22;15176;50.844;4.412;2023-02-08T14:27:54;17.60;29.80
27795;DHT22;15176;50.844;4.412;2023-02-08T14:30:29;16.60;31.50
27795;DHT22;15176;50.844;4.412;2023-02-08T14:35:32;16.80;32.00
27795;DHT22;15176;50.844;4.412;2023-02-08T14:40:52;17.70;31.90
27795;DHT22;15176;50.844;4.412;2023-02-08T14:45:52;17.30;32.50
27795;DHT22;15176;50.844;4.412;2023-02-08T14:48:23;17.20;32.70
27795;DHT22;15176;50.844;4.412;2023-02-08T14:53:57;17.00;33.00
27795;DHT22;15176;50.844;4.412;2023-02-08T14:57:17;16.60;33.90
27795;DHT22;15176;50.844;4.412;2023-02-08T14:59:35;15.80;34.60
27795;DHT22;15176;50.844;4.412;2023-02-08T15:02:14;15.90;35.20
27795;DHT22;15176;50.844;4.412;2023-02-08T15:04:44;16.10;36.30
27795;DHT22;15176;50.844;4.412;2023-02-08T15:10:04;15.70;35.70
27795;DHT22;15176;50.844;4.412;2023-02-08T15:12:33;15.70;36.00
27795;DHT22;15176;50.844;4.412;2023-02-08T15:15:03;14.60;37.00
27795;DHT22;15176;50.844;4.412;2023-02-08T15:17:36;14.70;37.40
27795;DHT22;15176;50.844;4.412;2023-02-08T15:20:06;14.20;38.20
27795;DHT22;15176;50.844;4.412;2023-02-08T15:22:36;13.80;38.90
27795;DHT22;15176;50.844;4.412;2023-02-08T15:25:23;14.10;38.90
27795;DHT22;15176;50.844;4.412;2023-02-08T15:28:00;13.70;38.60
27795;DHT22;15176;50.844;4.412;2023-02-08T15:30:33;13.50;38.80
27795;DHT22;15176;50.844;4.412;2023-02-08T15:33:02;13.00;39.50
27795;DHT22;15176;50.844;4.412;2023-02-08T15:35:28;12.70;40.40
27795;DHT22;15176;50.844;4.412;2023-02-08T15:37:56;12.60;41.00
27795;DHT22;15176;50.844;4.412;2023-02-08T15:40:28;12.30;41.10
27795;DHT22;15176;50.844;4.412;2023-02-08T15:43:08;12.50;41.50
27795;DHT22;15176;50.844;4.412;2023-02-08T15:45:37;12.70;41.10
27795;DHT22;15176;50.844;4.412;2023-02-08T15:48:05;12.70;40.90
27795;DHT22;15176;50.844;4.412;2023-02-08T15:50:31;12.80;40.50
27795;DHT22;15176;50.844;4.412;2023-02-08T15:53:03;12.90;40.50
27795;DHT22;15176;50.844;4.412;2023-02-08T15:55:43;12.90;40.20
27795;DHT22;15176;50.844;4.412;2023-02-08T15:58:29;12.70;40.30
27795;DHT22;15176;50.844;4.412;2023-02-08T16:01:00;12.50;40.50
27795;DHT22;15176;50.844;4.412;2023-02-08T16:03:27;12.40;41.00
27795;DHT22;15176;50.844;4.412;2023-02-08T16:05:59;11.90;41.60
27795;DHT22;15176;50.844;4.412;2023-02-08T16:08:30;12.30;42.70
27795;DHT22;15176;50.844;4.412;2023-02-08T16:11:10;12.70;40.90
27795;DHT22;15176;50.844;4.412;2023-02-08T16:13:38;13.00;40.20
27795;DHT22;15176;50.844;4.412;2023-02-08T16:16:57;12.80;41.80
27795;DHT22;15176;50.844;4.412;2023-02-08T16:21:43;13.00;40.00
27795;DHT22;15176;50.844;4.412;2023-02-08T16:27:00;12.80;39.70
27795;DHT22;15176;50.844;4.412;2023-02-08T16:32:30;12.30;40.60
27795;DHT22;15176;50.844;4.412;2023-02-08T16:34:58;12.40;40.50
27795;DHT22;15176;50.844;4.412;2023-02-08T16:37:26;12.60;40.30
27795;DHT22;15176;50.844;4.412;2023-02-08T16:42:25;12.40;39.80
27795;DHT22;15176;50.844;4.412;2023-02-08T16:45:18;12.00;42.00
27795;DHT22;15176;50.844;4.412;2023-02-08T16:47:54;11.90;42.20
27795;DHT22;15176;50.844;4.412;2023-02-08T16:50:23;12.10;41.30
27795;DHT22;15176;50.844;4.412;2023-02-08T16:52:53;12.10;40.80
27795;DHT22;15176;50.844;4.412;2023-02-08T16:55:23;12.00;41.60
27795;DHT22;15176;50.844;4.412;2023-02-08T16:57:52;11.90;42.10
27795;DHT22;15176;50.844;4.412;2023-02-08T17:00:26;11.90;42.10
27795;DHT22;15176;50.844;4.412;2023-02-08T17:02:52;12.00;42.00
27795;DHT22;15176;50.844;4.412;2023-02-08T17:05:20;12.30;41.50
27795;DHT22;15176;50.844;4.412;2023-02-08T17:07:46;12.20;41.30
27795;DHT22;15176;50.844;4.412;2023-02-08T17:10:27;12.10;41.40
27795;DHT22;15176;50.844;4.412;2023-02-08T17:12:53;12.10;41.60
27795;DHT22;15176;50.844;4.412;2023-02-08T17:15:20;11.90;42.30
27795;DHT22;15176;50.844;4.412;2023-02-08T17:17:48;12.00;42.00
27795;DHT22;15176;50.844;4.412;2023-02-08T17:20:21;11.90;42.10
27795;DHT22;15176;50.844;4.412;2023-02-08T17:22:50;11.60;43.00
27795;DHT22;15176;50.844;4.412;2023-02-08T17:25:16;11.60;42.60
27795;DHT22;15176;50.844;4.412;2023-02-08T17:27:57;11.50;42.50
27795;DHT22;15176;50.844;4.412;2023-02-08T17:30:32;11.40;42.70
27795;DHT22;15176;50.844;4.412;2023-02-08T17:32:58;11.30;43.10
27795;DHT22;15176;50.844;4.412;2023-02-08T17:35:26;11.10;43.90
27795;DHT22;15176;50.844;4.412;2023-02-08T17:37:53;11.20;44.20
27795;DHT22;15176;50.844;4.412;2023-02-08T17:40:22;11.30;43.90
27795;DHT22;15176;50.844;4.412;2023-02-08T17:42:50;11.30;43.40
27795;DHT22;15176;50.844;4.412;2023-02-08T17:45:15;11.30;43.40
27795;DHT22;15176;50.844;4.412;2023-02-08T17:47:41;11.40;43.30
27795;DHT22;15176;50.844;4.412;2023-02-08T17:50:11;11.10;43.40
27795;DHT22;15176;50.844;4.412;2023-02-08T17:52:37;11.00;43.70
27795;DHT22;15176;50.844;4.412;2023-02-08T17:55:04;10.90;44.70
27795;DHT22;15176;50.844;4.412;2023-02-08T17:57:32;10.90;44.60
27795;DHT22;15176;50.844;4.412;2023-02-08T17:59:58;10.90;44.70
27795;DHT22;15176;50.844;4.412;2023-02-08T18:02:24;11.00;44.50
27795;DHT22;15176;50.844;4.412;2023-02-08T18:04:50;11.00;44.20
27795;DHT22;15176;50.844;4.412;2023-02-08T18:07:16;11.10;44.20
27795;DHT22;15176;50.844;4.412;2023-02-08T18:09:42;11.00;44.20
27795;DHT22;15176;50.844;4.412;2023-02-08T18:12:08;11.00;44.60
27795;DHT22;15176;50.844;4.412;2023-02-08T18:14:36;11.10;44.50
27795;DHT22;15176;50.844;4.412;2023-02-08T18:17:03;11.10;44.20